Time;durP1;ratioP1;P1;durP2;ratioP2;P2;SDS_P1;SDS_P2;PMS_P1;PMS_P2;Temp;Humidity;BMP_temperature;BMP_pressure;BME280_temperature;BME280_humidity;BME280_pressure;Samples;Min_cycle;Max_cycle;Signal;HPM_P1;HPM_P2
2024/01/10 00:00:18;;;;;;;2.30;2.00;;;;;;;-4.60;100.00;103268.19;6084890;19;20022;-74
2024/01/10 00:02:23;;;;;;;2.85;2.15;;;;;;;-4.59;100.00;103265.72;6086831;19;20031;-74
2024/01/10 00:04:35;;;;;;;2.17;2.05;;;;;;;-4.55;100.00;103262.56;6084949;19;20070;-74
2024/01/10 00:06:42;;;;;;;2.20;2.00;;;;;;;-4.54;100.00;103260.88;6086829;19;20328;-74
2024/01/10 00:08:47;;;;;;;5.30;2.25;;;;;;;-4.54;100.00;103258.31;6087994;19;20016;-74
2024/01/10 00:10:54;;;;;;;1.60;1.60;;;;;;;-4.57;100.00;103253.88;6087188;19;20090;-74
2024/01/10 00:12:59;;;;;;;2.95;2.47;;;;;;;-4.54;100.00;103253.16;6087669;19;20451;-74
2024/01/10 00:15:08;;;;;;;2.38;2.10;;;;;;;-4.56;100.00;103252.19;6088866;19;20006;-76
2024/01/10 00:17:12;;;;;;;4.80;2.55;;;;;;;-4.59;100.00;103252.88;6082666;19;20368;-75
2024/01/10 00:19:18;;;;;;;1.92;1.83;;;;;;;-4.59;100.00;103254.56;6087708;19;20506;-74
2024/01/10 00:21:23;;;;;;;7.13;2.17;;;;;;;-4.60;100.00;103246.00;6089831;19;20047;-76
2024/01/10 00:23:30;;;;;;;2.20;1.50;;;;;;;-4.61;100.00;103241.63;6091512;19;20021;-73
2024/01/10 00:25:33;;;;;;;3.58;1.83;;;;;;;-4.59;100.00;103240.06;6089403;19;20074;-74
2024/01/10 00:27:38;;;;;;;;;;;;;;;-4.62;100.00;103239.88;6089926;19;20580;-74
2024/01/10 00:29:46;;;;;;;2.08;1.88;;;;;;;-4.65;100.00;103237.13;6090166;19;19922;-75
2024/01/10 00:31:54;;;;;;;2.55;2.45;;;;;;;-4.64;100.00;103246.59;6085877;19;20023;-74
2024/01/10 00:33:59;;;;;;;1.95;1.85;;;;;;;-4.70;100.00;103248.78;6084197;19;20026;-75
2024/01/10 00:36:05;;;;;;;2.72;1.95;;;;;;;-4.68;100.00;103237.81;6089065;19;20018;-75
2024/01/10 00:38:10;;;;;;;2.17;1.88;;;;;;;-4.70;100.00;103246.22;6089671;19;20015;-74
2024/01/10 00:40:16;;;;;;;4.45;1.92;;;;;;;-4.73;100.00;103248.59;6089340;19;20087;-74
2024/01/10 00:42:22;;;;;;;2.67;2.47;;;;;;;-4.75;100.00;103242.50;6085953;19;20023;-74
2024/01/10 00:44:27;;;;;;;4.38;3.20;;;;;;;-4.74;100.00;103239.13;6088959;19;20014;-74
2024/01/10 00:46:35;;;;;;;2.92;2.28;;;;;;;-4.74;100.00;103241.69;6087914;19;20050;-73
2024/01/10 00:48:43;;;;;;;4.82;3.33;;;;;;;-4.75;100.00;103238.25;6087197;19;20816;-75
2024/01/10 00:50:48;;;;;;;2.92;2.65;;;;;;;-4.75;100.00;103233.09;6085914;19;20002;-74
2024/01/10 00:52:53;;;;;;;2.75;2.42;;;;;;;-4.80;100.00;103228.50;6081636;19;20010;-74
2024/01/10 00:54:58;;;;;;;2.58;2.30;;;;;;;-4.78;100.00;103234.63;6084663;19;20013;-73
2024/01/10 00:57:04;;;;;;;1.90;1.77;;;;;;;-4.80;100.00;103228.50;6085744;19;20011;-76
2024/01/10 00:59:10;;;;;;;2.13;2.03;;;;;;;-4.73;100.00;103228.09;6087642;19;20046;-75
2024/01/10 01:01:17;;;;;;;2.40;2.17;;;;;;;-4.74;100.00;103232.34;6085073;19;20034;-76
2024/01/10 01:03:22;;;;;;;4.70;2.50;;;;;;;-4.72;100.00;103227.28;6082180;19;20013;-74
2024/01/10 01:05:28;;;;;;;4.30;2.30;;;;;;;-4.75;100.00;103225.41;6080298;19;20021;-76
2024/01/10 01:07:35;;;;;;;2.10;1.90;;;;;;;-4.75;100.00;103227.09;6083772;19;20094;-76
2024/01/10 01:09:40;;;;;;;2.85;1.95;;;;;;;-4.75;100.00;103219.41;6081095;19;20419;-74
2024/01/10 01:11:45;;;;;;;5.63;2.03;;;;;;;-4.79;100.00;103227.69;6080957;19;20010;-74
2024/01/10 01:13:48;;;;;;;4.10;3.20;;;;;;;-4.82;100.00;103225.81;6082554;19;20011;-74
2024/01/10 01:15:53;;;;;;;3.75;3.00;;;;;;;-4.81;100.00;103231.88;6085245;19;20017;-73
2024/01/10 01:17:58;;;;;;;5.40;2.40;;;;;;;-4.82;100.00;103222.38;6081890;19;20010;-73
2024/01/10 01:20:05;;;;;;;5.10;2.50;;;;;;;-4.83;100.00;103216.38;6082384;19;20007;-75
2024/01/10 01:22:13;;;;;;;3.10;1.80;;;;;;;-4.85;100.00;103213.69;6084581;19;20010;-74
2024/01/10 01:24:18;;;;;;;2.00;1.90;;;;;;;-4.90;100.00;103219.34;6084150;19;20430;-74
2024/01/10 01:26:23;;;;;;;3.25;2.80;;;;;;;-4.88;100.00;103228.91;6079451;19;20014;-73
2024/01/10 01:28:29;;;;;;;3.55;2.17;;;;;;;-4.86;100.00;103224.75;6079418;19;20538;-74
2024/01/10 01:30:35;;;;;;;5.75;2.42;;;;;;;-4.90;100.00;103233.09;6079241;19;20030;-73
2024/01/10 01:32:40;;;;;;;1.75;1.60;;;;;;;-4.87;100.00;103217.88;6082793;19;20011;-75
2024/01/10 01:34:48;;;;;;;4.88;2.85;;;;;;;-4.92;100.00;103226.97;6081009;19;20014;-73
2024/01/10 01:36:53;;;;;;;6.70;2.50;;;;;;;-4.88;100.00;103220.34;6083124;19;20021;-73
2024/01/10 01:39:01;;;;;;;2.95;2.00;;;;;;;-4.95;100.00;103224.22;6081475;19;20373;-74
2024/01/10 01:41:07;;;;;;;1.80;1.73;;;;;;;-4.95;100.00;103225.88;6081207;19;20015;-74
2024/01/10 01:43:21;;;;;;;5.50;2.53;;;;;;;-4.98;100.00;103218.88;6080598;19;20471;-74
2024/01/10 01:45:28;;;;;;;10.90;3.42;;;;;;;-4.89;100.00;103219.47;6077942;19;20228;-75
2024/01/10 01:47:33;;;;;;;2.40;2.05;;;;;;;-4.93;100.00;103217.47;6078705;19;20027;-74
2024/01/10 01:49:39;;;;;;;2.80;2.42;;;;;;;-4.98;100.00;103218.00;6083238;19;20349;-73
2024/01/10 01:51:44;;;;;;;2.55;2.00;;;;;;;-4.95;100.00;103213.06;6081595;19;20074;-74
2024/01/10 01:53:53;;;;;;;2.80;2.42;;;;;;;-4.98;100.00;103218.88;6081434;19;20371;-74
2024/01/10 01:56:05;;;;;;;2.03;1.92;;;;;;;-4.96;100.00;103219.88;6084865;19;20086;-74
2024/01/10 01:58:10;;;;;;;4.10;2.65;;;;;;;-4.87;100.00;103216.97;5978967;19;2004643;-74
2024/01/10 02:00:19;;;;;;;2.80;2.10;;;;;;;-4.91;100.00;103209.91;6077927;19;20415;-75
2024/01/10 02:02:25;;;;;;;2.55;2.35;;;;;;;-4.94;100.00;103217.41;6080010;19;20040;-75
2024/01/10 02:04:33;;;;;;;4.82;2.38;;;;;;;-4.98;100.00;103208.63;6080148;19;20490;-76
2024/01/10 02:06:38;;;;;;;2.55;2.38;;;;;;;-4.92;100.00;103214.16;6078839;19;20007;-75
2024/01/10 02:08:44;;;;;;;1.88;1.67;;;;;;;-4.93;100.00;103211.47;6080220;19;20031;-74
2024/01/10 02:10:51;;;;;;;3.55;2.92;;;;;;;-4.96;100.00;103208.72;6079556;19;20017;-74
2024/01/10 02:12:59;;;;;;;3.65;2.55;;;;;;;-4.94;100.00;103212.28;6078329;19;20499;-75
2024/01/10 02:15:06;;;;;;;5.68;2.22;;;;;;;-4.97;100.00;103204.41;6079168;19;20483;-75
2024/01/10 02:17:08;;;;;;;2.17;2.03;;;;;;;-5.01;100.00;103202.44;6086224;19;20593;-73
2024/01/10 02:19:21;;;;;;;1.85;1.75;;;;;;;-5.03;100.00;103204.00;6084607;19;20068;-73
2024/01/10 02:21:26;;;;;;;1.50;1.45;;;;;;;-4.99;100.00;103205.97;6086388;19;20491;-73
2024/01/10 02:23:34;;;;;;;3.28;2.38;;;;;;;-4.96;100.00;103206.16;6086802;19;20252;-73
2024/01/10 02:25:43;;;;;;;2.47;2.17;;;;;;;-5.02;100.00;103209.25;6088624;19;20019;-74
2024/01/10 02:27:49;;;;;;;4.35;2.25;;;;;;;-4.97;100.00;103204.41;6088534;19;20011;-75
2024/01/10 02:29:55;;;;;;;3.28;2.72;;;;;;;-4.97;100.00;103206.97;6089070;19;19998;-75
2024/01/10 02:32:00;;;;;;;3.70;3.35;;;;;;;-4.99;100.00;103199.16;6088010;19;20435;-73
2024/01/10 02:34:04;;;;;;;4.65;2.17;;;;;;;-5.04;100.00;103197.13;6086202;19;20002;-74
2024/01/10 02:36:09;;;;;;;3.60;2.00;;;;;;;-5.02;100.00;103196.44;6087792;19;20036;-73
2024/01/10 02:38:20;;;;;;;6.78;2.65;;;;;;;-5.00;100.00;103191.38;6080581;19;20030;-73
2024/01/10 02:40:25;;;;;;;4.40;2.65;;;;;;;-5.07;100.00;103183.31;6087312;19;20021;-72
2024/01/10 02:42:35;;;;;;;4.28;3.17;;;;;;;-5.02;100.00;103181.03;6087635;19;20106;-73
2024/01/10 02:44:43;;;;;;;5.55;2.47;;;;;;;-5.03;100.00;103183.50;6085887;19;20010;-74
2024/01/10 02:46:48;;;;;;;2.88;2.35;;;;;;;-5.02;100.00;103186.16;6086868;19;20024;-74
2024/01/10 02:48:53;;;;;;;4.28;2.40;;;;;;;-4.98;100.00;103180.41;6086412;19;20022;-74
2024/01/10 02:50:58;;;;;;;2.22;2.03;;;;;;;-5.00;100.00;103179.47;6089793;19;20169;-73
2024/01/10 02:53:03;;;;;;;9.43;2.90;;;;;;;-5.03;100.00;103180.94;6085590;19;20015;-74
2024/01/10 02:55:09;;;;;;;3.00;2.13;;;;;;;-5.00;100.00;103179.47;6087283;19;20348;-73
2024/01/10 02:57:16;;;;;;;2.22;2.05;;;;;;;-5.02;100.00;103181.03;6078691;19;20014;-74
2024/01/10 02:59:24;;;;;;;1.98;1.88;;;;;;;-4.99;100.00;103176.09;6083105;19;20013;-74
2024/01/10 03:01:30;;;;;;;5.82;2.20;;;;;;;-4.98;100.00;103177.84;6087576;19;20006;-72
2024/01/10 03:03:35;;;;;;;4.00;2.42;;;;;;;-4.94;100.00;103174.69;6084311;19;20014;-73
2024/01/10 03:05:40;;;;;;;2.15;1.92;;;;;;;-5.00;100.00;103174.34;6087754;19;20039;-72
2024/01/10 03:07:46;;;;;;;3.42;2.58;;;;;;;-5.01;100.00;103177.69;6081722;19;20031;-73
2024/01/10 03:09:51;;;;;;;1.88;1.77;;;;;;;-5.00;100.00;103169.22;6085320;19;20089;-73
2024/01/10 03:11:56;;;;;;;2.03;1.92;;;;;;;-5.03;100.00;103163.88;6086931;19;20519;-74
2024/01/10 03:14:04;;;;;;;3.13;2.83;;;;;;;-5.02;100.00;103173.34;6087526;19;20034;-74
2024/01/10 03:16:12;;;;;;;2.70;2.45;;;;;;;-5.08;100.00;103165.28;6082264;19;20465;-74
2024/01/10 03:18:18;;;;;;;7.20;2.95;;;;;;;-5.05;100.00;103156.88;6083584;19;20341;-73
2024/01/10 03:20:26;;;;;;;1.95;1.80;;;;;;;-5.06;100.00;103166.25;6084887;19;20010;-73
2024/01/10 03:22:33;;;;;;;3.08;2.17;;;;;;;-5.04;100.00;103162.09;6085558;19;20565;-73
2024/01/10 03:24:41;;;;;;;3.72;2.70;;;;;;;-5.02;100.00;103159.66;6086347;19;20011;-73
2024/01/10 03:26:48;;;;;;;4.63;2.53;;;;;;;-5.09;100.00;103173.75;6082939;19;20006;-73
2024/01/10 03:28:54;;;;;;;3.75;3.45;;;;;;;-5.08;100.00;103166.19;6086843;19;20011;-73
2024/01/10 03:31:00;;;;;;;2.60;2.40;;;;;;;-5.10;100.00;103165.19;6084678;19;20006;-73
2024/01/10 03:33:08;;;;;;;3.13;2.88;;;;;;;-5.09;100.00;103166.94;6080256;19;20034;-73
2024/01/10 03:35:14;;;;;;;5.18;3.10;;;;;;;-5.08;100.00;103162.72;6083622;19;20471;-73
2024/01/10 03:37:19;;;;;;;3.67;2.55;;;;;;;-5.14;100.00;103164.91;6084648;19;20007;-72
2024/01/10 03:39:25;;;;;;;3.25;2.65;;;;;;;-5.17;100.00;103159.59;6084365;19;19999;-73
2024/01/10 03:41:30;;;;;;;3.22;2.53;;;;;;;-5.17;100.00;103157.03;6084726;19;20088;-73
2024/01/10 03:43:38;;;;;;;2.90;2.25;;;;;;;-5.15;100.00;103153.75;6086634;19;20007;-75
2024/01/10 03:45:43;;;;;;;2.75;2.42;;;;;;;-5.21;100.00;103155.06;6081977;19;20653;-72
2024/01/10 03:47:49;;;;;;;12.18;3.05;;;;;;;-5.19;100.00;103148.34;6086448;19;20062;-74
2024/01/10 03:49:59;;;;;;;4.65;3.55;;;;;;;-5.17;100.00;103144.22;6082476;19;20006;-72
2024/01/10 03:52:04;;;;;;;4.80;3.08;;;;;;;-5.21;100.00;103149.94;6083283;19;20007;-75
2024/01/10 03:54:09;;;;;;;7.05;3.92;;;;;;;-5.22;100.00;103151.63;6080987;19;20042;-72
2024/01/10 03:56:16;;;;;;;5.63;3.55;;;;;;;-5.28;100.00;103143.56;6084892;19;20007;-75
2024/01/10 03:58:22;;;;;;;2.92;2.65;;;;;;;-5.32;100.00;103145.06;6076807;19;20346;-76
2024/01/10 04:00:27;;;;;;;2.00;1.90;;;;;;;-5.33;100.00;103138.16;6085246;19;20849;-75
2024/01/10 04:02:34;;;;;;;6.95;3.30;;;;;;;-5.38;100.00;103136.97;6084724;19;20011;-75
2024/01/10 04:04:39;;;;;;;3.05;2.53;;;;;;;-5.33;100.00;103139.81;6082139;19;20027;-75
2024/01/10 04:06:47;;;;;;;3.67;2.88;;;;;;;-5.38;100.00;103136.09;6084719;19;20452;-73
2024/01/10 04:08:52;;;;;;;2.80;2.60;;;;;;;-5.40;100.00;103129.97;6082535;19;20006;-73
2024/01/10 04:10:57;;;;;;;3.17;2.75;;;;;;;-5.38;100.00;103130.97;6083767;19;20383;-74
2024/01/10 04:13:03;;;;;;;4.75;2.40;;;;;;;-5.44;100.00;103128.91;6082771;19;20042;-74
2024/01/10 04:15:10;;;;;;;3.58;2.85;;;;;;;-5.46;100.00;103138.19;6081122;19;20018;-74
2024/01/10 04:17:12;;;;;;;3.53;3.03;;;;;;;-5.47;100.00;103132.97;6082674;19;20007;-72
2024/01/10 04:19:21;;;;;;;3.53;2.80;;;;;;;-5.43;100.00;103122.13;6082015;19;20006;-75
2024/01/10 04:21:26;;;;;;;3.65;3.38;;;;;;;-5.48;100.00;103120.94;6082778;19;20088;-75
2024/01/10 04:23:34;;;;;;;3.33;2.95;;;;;;;-5.48;100.00;103119.25;6084794;19;20007;-74
2024/01/10 04:25:41;;;;;;;4.03;2.95;;;;;;;-5.45;100.00;103118.56;6084869;19;20085;-74
2024/01/10 04:27:50;;;;;;;8.07;3.47;;;;;;;-5.47;100.00;103122.72;6083893;19;20075;-74
2024/01/10 04:29:55;;;;;;;5.43;3.83;;;;;;;-5.53;100.00;103120.66;6082768;19;20017;-75
2024/01/10 04:32:00;;;;;;;2.83;2.60;;;;;;;-5.50;100.00;103113.19;6083818;19;20357;-73
2024/01/10 04:34:06;;;;;;;2.55;1.85;;;;;;;-5.50;100.00;103118.31;6077270;19;20028;-72
2024/01/10 04:36:11;;;;;;;5.05;3.72;;;;;;;-5.51;100.00;103127.63;6079257;19;20010;-75
2024/01/10 04:38:16;;;;;;;5.97;4.03;;;;;;;-5.52;100.00;103110.50;6080079;19;20010;-74
2024/01/10 04:40:26;;;;;;;4.47;3.28;;;;;;;-5.49;100.00;103108.94;6079205;19;20006;-74
2024/01/10 04:42:33;;;;;;;5.55;3.30;;;;;;;-5.53;100.00;103110.41;6080866;19;20536;-73
2024/01/10 04:44:35;;;;;;;4.65;2.58;;;;;;;-5.53;100.00;103108.75;6083187;19;20042;-72
2024/01/10 04:46:40;;;;;;;;;;;;;;;-5.54;100.00;103112.09;6084667;19;20010;-73
2024/01/10 04:48:46;;;;;;;3.22;2.60;;;;;;;-5.53;100.00;103115.53;6081465;19;19938;-73
2024/01/10 04:50:51;;;;;;;4.43;3.28;;;;;;;-5.55;100.00;103117.13;6082614;19;20594;-73
2024/01/10 04:52:56;;;;;;;5.10;2.90;;;;;;;-5.53;100.00;103112.97;6080410;19;20007;-73
2024/01/10 04:55:02;;;;;;;4.45;3.30;;;;;;;-5.54;100.00;103113.75;6082778;19;20013;-73
2024/01/10 04:57:12;;;;;;;3.33;2.92;;;;;;;-5.52;100.00;103120.75;6080221;19;20702;-74
2024/01/10 04:59:15;;;;;;;3.75;3.15;;;;;;;-5.54;100.00;103121.47;6076362;19;20038;-73
2024/01/10 05:01:20;;;;;;;3.35;3.08;;;;;;;-5.56;100.00;103125.59;6082650;19;21159;-74
2024/01/10 05:03:26;;;;;;;3.83;2.97;;;;;;;-5.55;100.00;103122.25;6085328;19;20475;-72
2024/01/10 05:05:32;;;;;;;6.93;4.25;;;;;;;-5.56;100.00;103123.03;6082481;19;20006;-73
2024/01/10 05:07:37;;;;;;;2.88;2.72;;;;;;;-5.59;100.00;103128.84;6082840;19;20012;-72
2024/01/10 05:09:44;;;;;;;2.30;2.17;;;;;;;-5.55;100.00;103124.81;6083669;19;20107;-72
2024/01/10 05:11:51;;;;;;;4.20;3.83;;;;;;;-5.53;100.00;103116.44;6081371;19;20042;-73
2024/01/10 05:13:58;;;;;;;6.15;3.67;;;;;;;-5.49;100.00;103114.06;6083093;19;20023;-72
2024/01/10 05:16:01;;;;;;;7.28;3.92;;;;;;;-5.53;100.00;103118.09;6081837;19;20022;-72
2024/01/10 05:18:06;;;;;;;;;;;;;;;-5.55;100.00;103110.31;6082967;19;20038;-73
2024/01/10 05:20:13;;;;;;;6.50;3.38;;;;;;;-5.51;100.00;103112.28;6083865;19;19906;-72
2024/01/10 05:22:18;;;;;;;2.90;2.67;;;;;;;-5.54;100.00;103103.53;6078757;19;20018;-72
2024/01/10 05:24:24;;;;;;;3.35;3.15;;;;;;;-5.59;100.00;103105.78;6083430;19;20035;-72
2024/01/10 05:26:29;;;;;;;3.72;2.80;;;;;;;-5.57;100.00;103108.47;6082012;19;20085;-72
2024/01/10 05:28:36;;;;;;;7.28;3.00;;;;;;;-5.58;100.00;103111.78;6080821;19;20016;-72
2024/01/10 05:30:43;;;;;;;5.75;3.53;;;;;;;-5.57;100.00;103105.91;6080754;19;20552;-73
2024/01/10 05:32:49;;;;;;;3.67;3.38;;;;;;;-5.58;100.00;103101.53;6077410;19;20011;-72
2024/01/10 05:34:54;;;;;;;7.80;3.28;;;;;;;-5.56;100.00;103107.66;6082738;19;20008;-73
2024/01/10 05:37:00;;;;;;;4.68;3.58;;;;;;;-5.59;100.00;103104.91;6081821;19;20263;-73
2024/01/10 05:39:03;;;;;;;3.85;2.53;;;;;;;-5.64;100.00;103104.63;6081854;19;20011;-74
2024/01/10 05:41:08;;;;;;;3.15;2.92;;;;;;;-5.60;100.00;103111.72;6083130;19;20614;-75
2024/01/10 05:43:15;;;;;;;4.60;3.80;;;;;;;-5.57;100.00;103103.34;6079332;19;20007;-75
2024/01/10 05:45:20;;;;;;;4.70;3.05;;;;;;;-5.58;100.00;103102.47;6083434;19;20003;-75
2024/01/10 05:47:28;;;;;;;7.85;4.45;;;;;;;-5.54;100.00;103106.09;6082520;19;20654;-74
2024/01/10 05:49:35;;;;;;;6.07;4.95;;;;;;;-5.53;100.00;103105.28;6081078;19;20015;-74
2024/01/10 05:51:41;;;;;;;4.38;3.17;;;;;;;-5.52;100.00;103099.38;6091767;19;20119;-74
2024/01/10 05:53:49;;;;;;;4.28;2.70;;;;;;;-5.56;100.00;103105.09;6086095;19;20696;-73
2024/01/10 05:55:54;;;;;;;4.93;4.38;;;;;;;-5.58;100.00;103105.03;6090678;19;20023;-73
2024/01/10 05:57:59;;;;;;;5.65;3.55;;;;;;;-5.58;100.00;103094.78;6090618;19;20415;-72
2024/01/10 06:00:09;;;;;;;2.90;2.70;;;;;;;-5.56;100.00;103103.41;6093624;19;20069;-72
2024/01/10 06:02:17;;;;;;;5.88;1.90;;;;;;;-5.59;100.00;103103.22;6094387;19;20479;-72
2024/01/10 06:04:25;;;;;;;3.95;2.63;;;;;;;-5.60;100.00;103105.72;6085199;19;20775;-72
2024/01/10 06:06:30;;;;;;;3.53;2.60;;;;;;;-5.60;100.00;103106.59;6088639;19;20021;-73
2024/01/10 06:08:39;;;;;;;3.35;3.05;;;;;;;-5.61;100.00;103103.94;6087760;19;20011;-73
2024/01/10 06:10:46;;;;;;;3.63;2.92;;;;;;;-5.55;100.00;103106.88;6090407;19;20055;-73
2024/01/10 06:12:51;;;;;;;6.18;3.85;;;;;;;-5.52;100.00;103100.25;6087494;19;20436;-73
2024/01/10 06:14:57;;;;;;;6.05;3.13;;;;;;;-5.60;100.00;103100.59;6089829;19;20019;-73
2024/01/10 06:17:03;;;;;;;4.50;3.08;;;;;;;-5.57;100.00;103100.78;6085625;19;20014;-74
2024/01/10 06:19:10;;;;;;;2.95;2.75;;;;;;;-5.58;100.00;103101.53;6088094;19;20007;-74
2024/01/10 06:21:18;;;;;;;5.38;2.58;;;;;;;-5.57;100.00;103100.78;6089333;19;20097;-74
2024/01/10 06:23:23;;;;;;;4.63;3.78;;;;;;;-5.57;100.00;103101.66;6082415;19;20010;-74
2024/01/10 06:25:29;;;;;;;4.80;4.03;;;;;;;-5.59;100.00;103104.91;6086662;19;20090;-72
2024/01/10 06:27:34;;;;;;;3.70;3.40;;;;;;;-5.60;100.00;103090.34;6087270;19;20011;-72
2024/01/10 06:29:39;;;;;;;3.83;2.72;;;;;;;-5.56;100.00;103092.28;6088484;19;20460;-72
2024/01/10 06:31:44;;;;;;;6.22;3.72;;;;;;;-5.56;100.00;103089.72;6088359;19;20014;-72
2024/01/10 06:33:50;;;;;;;6.15;4.32;;;;;;;-5.57;100.00;103086.28;6086724;19;20014;-72
2024/01/10 06:35:55;;;;;;;6.93;3.80;;;;;;;-5.57;100.00;103088.84;6084718;19;20078;-72
2024/01/10 06:38:03;;;;;;;6.68;3.83;;;;;;;-5.53;100.00;103089.91;6087178;19;20020;-72
2024/01/10 06:40:12;;;;;;;4.43;2.95;;;;;;;-5.53;100.00;103089.91;6087483;19;20010;-73
2024/01/10 06:42:17;;;;;;;7.85;3.17;;;;;;;-5.49;100.00;103097.00;6088647;19;19999;-74
2024/01/10 06:44:20;;;;;;;3.38;3.08;;;;;;;-5.49;100.00;103096.13;6089314;19;20015;-73
2024/01/10 06:46:25;;;;;;;;;;;;;;;-5.50;100.00;103097.81;6082103;19;20511;-73
2024/01/10 06:48:31;;;;;;;3.33;3.05;;;;;;;-5.49;100.00;103097.00;6088762;19;19917;-73
2024/01/10 06:50:37;;;;;;;3.42;2.80;;;;;;;-5.56;100.00;103093.16;6084856;19;20506;-72
2024/01/10 06:52:39;;;;;;;2.65;2.40;;;;;;;-5.57;100.00;103091.41;6083808;19;20018;-71
2024/01/10 06:54:47;;;;;;;6.45;3.38;;;;;;;-5.53;100.00;103097.59;6086737;19;20016;-74
2024/01/10 06:56:52;;;;;;;2.05;1.95;;;;;;;-5.49;100.00;103102.13;6085405;19;20287;-73
2024/01/10 06:58:58;;;;;;;3.17;2.88;;;;;;;-5.54;100.00;103108.66;6088926;19;20451;-71
2024/01/10 07:01:04;;;;;;;6.40;3.97;;;;;;;-5.54;100.00;103119.78;6086065;19;20002;-76
2024/01/10 07:03:10;;;;;;;4.80;3.75;;;;;;;-5.57;100.00;103111.03;6087569;19;20025;-75
2024/01/10 07:05:17;;;;;;;3.80;2.28;;;;;;;-5.53;100.00;103110.41;6086438;19;20010;-76
2024/01/10 07:07:23;;;;;;;3.47;2.63;;;;;;;-5.61;100.00;103115.09;6087056;19;20058;-73
2024/01/10 07:09:26;;;;;;;3.50;3.03;;;;;;;-5.59;100.00;103113.47;6082998;19;20039;-74
2024/01/10 07:11:34;;;;;;;3.95;3.42;;;;;;;-5.60;100.00;103111.72;6085379;19;20074;-74
2024/01/10 07:13:42;;;;;;;2.58;2.13;;;;;;;-5.57;100.00;103113.59;6085200;19;20467;-73
2024/01/10 07:15:44;;;;;;;6.88;3.70;;;;;;;-5.57;100.00;103116.16;6088314;19;20003;-74
2024/01/10 07:17:49;;;;;;;;;;;;;;;-5.63;100.00;103103.84;6089926;19;20527;-73
2024/01/10 07:19:56;;;;;;;6.55;3.90;;;;;;;-5.66;100.00;103110.44;6088682;19;20245;-74
2024/01/10 07:22:01;;;;;;;3.22;2.80;;;;;;;-5.66;100.00;103105.31;6088250;19;20014;-74
2024/01/10 07:24:08;;;;;;;5.10;3.60;;;;;;;-5.65;100.00;103107.09;6088305;19;20317;-73
2024/01/10 07:26:17;;;;;;;4.85;3.45;;;;;;;-5.63;100.00;103110.66;6085946;19;20006;-72
2024/01/10 07:28:25;;;;;;;6.32;3.22;;;;;;;-5.59;100.00;103112.59;6085120;19;20463;-73
2024/01/10 07:30:32;;;;;;;9.40;4.15;;;;;;;-5.56;100.00;103103.41;6086177;19;20010;-73
2024/01/10 07:32:38;;;;;;;4.90;2.97;;;;;;;-5.55;100.00;103105.19;6083349;19;20010;-71
2024/01/10 07:34:44;;;;;;;5.30;2.95;;;;;;;-5.58;100.00;103116.91;6089186;19;20015;-71
2024/01/10 07:36:50;;;;;;;4.47;3.03;;;;;;;-5.52;100.00;103127.56;6084385;19;20010;-72
2024/01/10 07:38:57;;;;;;;4.82;3.40;;;;;;;-5.49;100.00;103114.06;6088090;19;20018;-74
2024/01/10 07:41:06;;;;;;;4.35;3.47;;;;;;;-5.53;100.00;103116.44;6087122;19;20478;-72
2024/01/10 07:43:11;;;;;;;4.78;3.33;;;;;;;-5.56;100.00;103116.22;6087544;19;20042;-74
2024/01/10 07:45:19;;;;;;;4.13;3.03;;;;;;;-5.52;100.00;103125.88;6088363;19;20259;-74
2024/01/10 07:47:28;;;;;;;3.47;2.92;;;;;;;-5.51;100.00;103122.50;6085830;19;20055;-71
2024/01/10 07:49:33;;;;;;;5.00;4.30;;;;;;;-5.48;100.00;103116.69;6086239;19;20496;-72
2024/01/10 07:51:36;;;;;;;6.07;4.82;;;;;;;-5.47;100.00;103117.59;6087940;19;20006;-73
2024/01/10 07:53:42;;;;;;;5.10;3.13;;;;;;;-5.47;100.00;103110.81;6080270;19;20003;-72
2024/01/10 07:55:47;;;;;;;4.40;3.08;;;;;;;-5.44;100.00;103116.09;6087077;19;20024;-72
2024/01/10 07:57:50;;;;;;;2.92;2.72;;;;;;;-5.46;100.00;103117.69;6085520;19;20101;-74
2024/01/10 07:59:54;;;;;;;;;;;;;;;-5.46;100.00;103115.13;6087530;19;20360;-72
2024/01/10 08:02:03;;;;;;;3.00;2.53;;;;;;;-5.42;100.00;103118.78;6081022;19;19910;-71
2024/01/10 08:04:08;;;;;;;3.80;2.38;;;;;;;-5.44;100.00;103121.22;6087320;19;20250;-74
2024/01/10 08:06:18;;;;;;;3.40;3.08;;;;;;;-5.48;100.00;103118.38;6085660;19;20471;-72
2024/01/10 08:08:33;;;;;;;4.63;3.10;;;;;;;-5.42;100.00;103122.22;6087865;19;20020;-71
2024/01/10 08:10:39;;;;;;;5.97;3.03;;;;;;;-5.42;100.00;103127.34;6087960;19;20313;-73
2024/01/10 08:12:45;;;;;;;8.40;3.83;;;;;;;-5.41;100.00;103129.09;6083646;19;20440;-74
2024/01/10 08:14:50;;;;;;;3.88;3.22;;;;;;;-5.44;100.00;103122.91;6084331;19;20043;-72
2024/01/10 08:16:57;;;;;;;3.63;3.33;;;;;;;-5.44;100.00;103123.78;6085034;19;20025;-73
2024/01/10 08:19:04;;;;;;;2.67;2.47;;;;;;;-5.40;100.00;103128.31;6078025;19;20013;-74
2024/01/10 08:21:09;;;;;;;2.47;2.30;;;;;;;-5.36;100.00;103121.72;6082493;19;20466;-72
2024/01/10 08:23:15;;;;;;;2.70;2.20;;;;;;;-5.36;100.00;103127.72;6085020;19;20566;-73
2024/01/10 08:25:20;;;;;;;4.25;2.95;;;;;;;-5.32;100.00;103134.81;6087232;19;20738;-73
2024/01/10 08:27:25;;;;;;;4.03;2.80;;;;;;;-5.30;100.00;103128.06;6084685;19;20007;-74
2024/01/10 08:29:31;;;;;;;2.83;2.40;;;;;;;-5.22;100.00;103125.97;6081991;19;20108;-73
2024/01/10 08:31:37;;;;;;;4.25;2.50;;;;;;;-5.23;100.00;103128.47;6087516;19;20035;-71
2024/01/10 08:33:43;;;;;;;3.38;2.63;;;;;;;-5.20;100.00;103126.09;6087707;19;20110;-73
2024/01/10 08:35:50;;;;;;;3.40;2.90;;;;;;;-5.20;100.00;103119.28;6087461;19;20021;-72
2024/01/10 08:37:56;;;;;;;2.90;2.63;;;;;;;-5.18;100.00;103121.94;6088778;19;20038;-75
2024/01/10 08:40:09;;;;;;;3.50;2.70;;;;;;;-5.17;100.00;103116.91;6085810;19;20368;-74
2024/01/10 08:42:15;;;;;;;2.38;2.28;;;;;;;-5.12;100.00;103114.63;6088160;19;20034;-72
2024/01/10 08:44:22;;;;;;;3.15;2.22;;;;;;;-5.11;100.00;103106.13;6086995;19;20018;-73
2024/01/10 08:46:27;;;;;;;3.63;2.63;;;;;;;-5.10;100.00;103120.72;6083563;19;20094;-75
2024/01/10 08:48:36;;;;;;;5.05;3.97;;;;;;;-5.06;100.00;103120.09;6087896;19;20006;-73
2024/01/10 08:50:41;;;;;;;3.00;2.65;;;;;;;-5.03;100.00;103101.47;6088291;19;20025;-72
2024/01/10 08:52:49;;;;;;;4.90;3.15;;;;;;;-4.99;100.00;103104.31;6085742;19;20530;-72
2024/01/10 08:54:54;;;;;;;3.28;2.60;;;;;;;-4.96;100.00;103107.03;6081639;19;20025;-73
2024/01/10 08:57:00;;;;;;;3.22;2.42;;;;;;;-4.92;100.00;103106.44;6086191;19;20427;-75
2024/01/10 08:59:06;;;;;;;2.33;2.17;;;;;;;-4.86;100.00;103103.34;6086573;19;20336;-75
2024/01/10 09:01:12;;;;;;;3.13;1.65;;;;;;;-4.87;100.00;103097.34;6086393;19;20364;-73
2024/01/10 09:03:17;;;;;;;3.00;2.80;;;;;;;-4.84;100.00;103091.53;6084988;19;20011;-73
2024/01/10 09:05:22;;;;;;;4.47;2.80;;;;;;;-4.81;100.00;103093.38;6085249;19;20038;-74
2024/01/10 09:07:28;;;;;;;5.55;3.42;;;;;;;-4.74;100.00;103093.81;6082557;19;20110;-74
2024/01/10 09:09:36;;;;;;;5.63;2.67;;;;;;;-4.70;100.00;103097.44;6081326;19;20540;-74
2024/01/10 09:11:42;;;;;;;4.28;3.75;;;;;;;-4.67;100.00;103105.31;6084368;19;20340;-75
2024/01/10 09:13:50;;;;;;;7.32;3.20;;;;;;;-4.63;100.00;103090.19;6081705;19;20010;-72
2024/01/10 09:15:55;;;;;;;5.13;4.65;;;;;;;-4.59;100.00;103098.06;6084108;19;20078;-74
2024/01/10 09:18:00;;;;;;;2.58;2.38;;;;;;;-4.55;100.00;103105.16;6083621;19;20102;-71
2024/01/10 09:20:08;;;;;;;3.95;3.00;;;;;;;-4.46;100.00;103103.97;6079256;19;20502;-74
2024/01/10 09:22:14;;;;;;;5.38;3.13;;;;;;;-4.45;100.00;103103.19;6081721;19;20042;-72
2024/01/10 09:24:19;;;;;;;4.57;3.63;;;;;;;-4.44;100.00;103104.97;6084319;19;20341;-74
2024/01/10 09:26:37;;;;;;;4.50;2.90;;;;;;;-4.37;100.00;103111.34;6087194;19;20017;-75
2024/01/10 09:28:42;;;;;;;2.90;2.13;;;;;;;-4.37;100.00;103113.00;6089423;19;20180;-72
2024/01/10 09:30:51;;;;;;;2.08;1.95;;;;;;;-4.32;100.00;103111.59;6088037;19;20003;-71
2024/01/10 09:32:54;;;;;;;6.18;3.63;;;;;;;-4.25;100.00;103103.44;6083160;19;20002;-72
2024/01/10 09:34:59;;;;;;;8.63;4.35;;;;;;;-4.22;100.00;103103.63;6083305;19;20470;-72
2024/01/10 09:37:05;;;;;;;7.75;3.35;;;;;;;-4.17;100.00;103109.00;6088553;19;20018;-71
2024/01/10 09:39:13;;;;;;;3.75;2.60;;;;;;;-4.15;100.00;103115.13;6087957;19;20034;-71
2024/01/10 09:41:19;;;;;;;8.50;3.97;;;;;;;-4.12;100.00;103111.03;6088282;19;20085;-72